Time;durP1;ratioP1;P1;durP2;ratioP2;P2;SDS_P1;SDS_P2;PMS_P1;PMS_P2;Temp;Humidity;BMP_temperature;BMP_pressure;BME280_temperature;BME280_humidity;BME280_pressure;Samples;Min_cycle;Max_cycle;Signal;HPM_P1;HPM_P2
2022/03/24 06:01:47;;;;;;;26.55;15.30;;;3.90;86.50;;;;;;6104640;23;20321;31
2022/03/24 06:04:15;;;;;;;28.30;15.45;;;4.00;86.20;;;;;;6133778;23;20073;-80
2022/03/24 06:06:42;;;;;;;30.10;15.80;;;4.00;85.90;;;;;;6135024;23;20005;-79
2022/03/24 06:09:08;;;;;;;29.98;15.25;;;4.20;85.90;;;;;;6133195;23;20002;-80
2022/03/24 06:11:36;;;;;;;26.08;14.68;;;4.20;85.40;;;;;;6134093;23;20002;-80
2022/03/24 06:14:08;;;;;;;27.13;15.25;;;4.30;85.40;;;;;;6134007;23;20002;-81
2022/03/24 06:16:35;;;;;;;29.13;15.00;;;4.40;84.50;;;;;;6108041;23;20010;-81
2022/03/24 06:19:02;;;;;;;31.17;15.07;;;4.50;84.20;;;;;;6133577;23;20064;-79
2022/03/24 06:21:28;;;;;;;26.50;14.35;;;4.60;84.50;;;;;;6133338;23;20010;-79
2022/03/24 06:23:55;;;;;;;26.63;15.10;;;4.70;83.60;;;;;;6109862;23;20334;-80
2022/03/24 06:26:23;;;;;;;25.88;15.05;;;4.80;83.90;;;;;;6109455;23;20017;-82
2022/03/24 06:28:53;;;;;;;28.73;15.63;;;4.90;83.80;;;;;;6134551;23;20029;-80
2022/03/24 06:31:21;;;;;;;26.02;15.75;;;5.20;84.00;;;;;;6107141;23;20025;-80
2022/03/24 06:33:48;;;;;;;25.75;15.05;;;5.20;82.70;;;;;;6084722;23;20017;-80
2022/03/24 06:36:15;;;;;;;31.63;14.80;;;5.30;82.70;;;;;;6133528;23;20049;-80
2022/03/24 06:38:42;;;;;;;30.33;15.35;;;5.40;81.80;;;;;;6109862;23;20077;-80
2022/03/24 06:41:08;;;;;;;31.25;16.60;;;5.60;82.00;;;;;;6084537;23;20002;-80
2022/03/24 06:43:36;;;;;;;23.77;14.77;;;5.60;81.80;;;;;;6132898;23;20041;-83
2022/03/24 06:46:05;;;;;;;28.38;15.93;;;5.70;81.20;;;;;;6132354;23;20014;-80
2022/03/24 06:48:31;;;;;;;25.65;14.77;;;5.90;80.60;;;;;;6108144;23;20009;-80
2022/03/24 06:50:57;;;;;;;26.30;14.95;;;6.00;80.10;;;;;;6133090;23;20310;-80
2022/03/24 06:53:23;;;;;;;26.27;14.95;;;6.00;80.00;;;;;;6133051;23;20040;-81
2022/03/24 06:55:50;;;;;;;24.17;14.73;;;6.10;79.50;;;;;;6133722;23;20285;-82
2022/03/24 06:58:16;;;;;;;28.83;14.98;;;6.10;79.30;;;;;;6132994;23;20220;-82
2022/03/24 07:00:41;;;;;;;25.95;14.77;;;6.20;79.50;;;;;;6084434;23;20010;-80
2022/03/24 07:03:07;;;;;;;27.13;15.45;;;6.30;79.20;;;;;;6112019;23;20021;-81
2022/03/24 07:05:33;;;;;;;29.15;15.50;;;6.50;78.80;;;;;;6135516;23;20093;-78
2022/03/24 07:07:59;;;;;;;24.92;14.75;;;6.60;78.50;;;;;;6134851;23;20035;-82
2022/03/24 07:10:25;;;;;;;27.63;16.25;;;6.70;77.80;;;;;;6084797;23;20307;-81
2022/03/24 07:12:51;;;;;;;27.90;15.68;;;6.70;78.00;;;;;;6109488;23;20002;-82
2022/03/24 07:15:17;;;;;;;28.80;16.25;;;6.80;77.20;;;;;;6132395;23;20074;-81
2022/03/24 07:17:42;;;;;;;27.20;16.02;;;6.80;77.20;;;;;;6134118;23;20008;-82
2022/03/24 07:20:09;;;;;;;25.88;15.05;;;6.80;77.00;;;;;;6134809;23;20002;-82
2022/03/24 07:22:37;;;;;;;24.92;15.07;;;6.80;77.80;;;;;;6108469;23;20005;-80
2022/03/24 07:25:05;;;;;;;26.75;16.10;;;7.00;77.50;;;;;;6133417;23;20065;-82
2022/03/24 07:27:31;;;;;;;26.83;15.52;;;7.10;76.70;;;;;;6084497;23;20192;-84
2022/03/24 07:29:56;;;;;;;25.73;16.00;;;7.20;76.70;;;;;;6109170;23;20017;-79
2022/03/24 07:32:22;;;;;;;27.25;15.38;;;7.20;76.10;;;;;;6133037;23;20022;-80
2022/03/24 07:34:48;;;;;;;27.85;15.95;;;7.20;76.20;;;;;;6134779;23;20002;-80
2022/03/24 07:37:38;;;;;;;30.52;15.85;;;7.30;76.20;;;;;;6133820;23;20008;-81
2022/03/24 07:40:30;;;;;;;27.27;15.73;;;7.40;75.70;;;;;;6109572;23;20006;-80
2022/03/24 07:42:57;;;;;;;27.95;14.88;;;7.50;76.00;;;;;;6109364;23;19998;-80
2022/03/24 07:45:26;;;;;;;27.77;16.50;;;7.60;75.10;;;;;;6108899;23;20023;-81
2022/03/24 07:48:27;;;;;;;31.88;16.70;;;7.70;74.90;;;;;;6133347;23;20072;-80
2022/03/24 07:51:13;;;;;;;32.17;16.85;;;7.80;74.70;;;;;;6134358;23;20180;-81
2022/03/24 07:53:48;;;;;;;28.05;16.00;;;7.90;74.50;;;;;;6108753;23;20009;-83
2022/03/24 07:56:17;;;;;;;26.65;14.98;;;8.10;74.20;;;;;;6132966;23;20025;-82
2022/03/24 07:59:10;;;;;;;32.58;16.42;;;8.20;73.60;;;;;;6135091;23;20006;-81
2022/03/24 08:01:37;;;;;;;26.35;16.20;;;8.40;73.20;;;;;;6153451;23;20009;-84
2022/03/24 08:08:11;;;;;;;28.17;16.23;;;8.50;72.60;;;;;;6197634;23;20005;-83
2022/03/24 08:10:39;;;;;;;33.17;17.00;;;8.50;72.60;;;;;;6195750;23;20005;-82
2022/03/24 08:13:06;;;;;;;29.40;16.80;;;8.50;72.50;;;;;;6196252;23;20023;-83
2022/03/24 08:15:33;;;;;;;31.58;17.77;;;8.60;72.70;;;;;;6161957;23;20071;-82
2022/03/24 08:17:58;;;;;;;27.55;15.93;;;8.70;72.30;;;;;;6164764;23;20001;-83
2022/03/24 08:21:11;;;;;;;29.25;17.50;;;8.80;72.20;;;;;;6164472;23;20052;-80
2022/03/24 08:23:37;;;;;;;26.45;15.85;;;8.90;71.90;;;;;;6114905;23;20013;-83
2022/03/24 08:26:40;;;;;;;31.67;17.20;;;9.20;71.60;;;;;;6167417;23;20302;-79
2022/03/24 08:29:06;;;;;;;29.08;16.80;;;9.40;70.90;;;;;;6148231;23;20009;-79
2022/03/24 08:31:33;;;;;;;28.08;16.80;;;9.60;71.00;;;;;;6178310;23;20025;-78
2022/03/24 08:34:02;;;;;;;32.90;17.35;;;9.60;70.60;;;;;;6180075;23;20025;-82
2022/03/24 08:37:22;;;;;;;30.55;16.95;;;9.90;70.20;;;;;;6154327;23;20297;-80
2022/03/24 08:39:24;;;;;;;31.10;17.50;;;10.10;69.90;;;;;;6153971;23;20298;-80
2022/03/24 08:41:54;;;;;;;26.85;16.35;;;10.30;69.50;;;;;;6115339;23;20016;-79
2022/03/24 08:44:20;;;;;;;28.40;16.95;;;10.50;68.70;;;;;;6164628;23;20032;-79
2022/03/24 08:46:45;;;;;;;28.88;17.92;;;10.60;68.20;;;;;;6163413;23;20016;-81
2022/03/24 08:49:12;;;;;;;39.10;18.02;;;10.80;67.80;;;;;;6165237;23;20017;-80
2022/03/24 08:51:38;;;;;;;37.72;18.35;;;10.90;67.00;;;;;;6164887;23;20095;-80
2022/03/24 08:54:04;;;;;;;34.08;18.15;;;11.00;67.00;;;;;;6139426;23;20365;-82
2022/03/24 08:56:30;;;;;;;32.03;17.00;;;11.20;66.60;;;;;;6165180;23;20008;-81
2022/03/24 08:59:02;;;;;;;29.73;17.75;;;11.20;66.00;;;;;;6104429;23;20018;-79
2022/03/24 09:01:28;;;;;;;33.97;18.25;;;11.50;65.20;;;;;;6140796;23;20036;-83
2022/03/24 09:03:54;;;;;;;31.77;18.50;;;11.60;64.70;;;;;;6163511;23;20072;-80
2022/03/24 09:06:21;;;;;;;30.67;18.10;;;11.70;64.40;;;;;;6162552;23;20189;-80
2022/03/24 09:08:47;;;;;;;35.05;18.52;;;11.80;64.50;;;;;;6162830;23;20346;-83
2022/03/24 09:11:18;;;;;;;40.88;20.35;;;11.90;63.90;;;;;;6138197;23;20013;-82
2022/03/24 09:13:43;;;;;;;33.97;20.20;;;12.00;63.70;;;;;;6162617;23;20056;-81
2022/03/24 09:16:30;;;;;;;29.95;18.67;;;12.20;63.50;;;;;;6102194;23;20011;-78
2022/03/24 09:18:58;;;;;;;33.65;19.38;;;12.30;63.30;;;;;;6103609;23;20009;-79
2022/03/24 09:21:24;;;;;;;;;;;12.50;62.30;;;;;;6104259;23;20013;-78
2022/03/24 09:23:55;;;;;;;29.75;18.33;;;12.50;62.60;;;;;;6104423;23;19949;-79
2022/03/24 09:26:21;;;;;;;33.88;19.10;;;12.70;62.00;;;;;;6104213;23;20054;-81
2022/03/24 09:28:51;;;;;;;31.50;19.02;;;12.70;61.50;;;;;;6103669;23;20014;-79
2022/03/24 09:31:17;;;;;;;32.88;20.25;;;12.80;61.00;;;;;;6075335;23;20023;-81
2022/03/24 09:33:43;;;;;;;34.33;20.27;;;13.00;61.00;;;;;;6075264;23;20007;-80
2022/03/24 09:36:09;;;;;;;36.50;20.45;;;13.10;61.00;;;;;;6100230;23;20011;-78
2022/03/24 09:38:35;;;;;;;33.83;20.33;;;13.30;60.30;;;;;;6075393;23;20071;-79
2022/03/24 09:41:01;;;;;;;27.20;19.55;;;13.40;59.50;;;;;;6074653;23;20046;-79
2022/03/24 09:43:30;;;;;;;33.22;19.90;;;13.50;59.70;;;;;;6097854;23;20469;-83
2022/03/24 09:45:56;;;;;;;33.53;21.33;;;13.70;59.80;;;;;;6076070;23;20018;-81
2022/03/24 09:48:40;;;;;;;31.40;20.17;;;13.70;58.90;;;;;;6143599;23;20001;-82
2022/03/24 09:51:07;;;;;;;35.92;21.40;;;13.80;58.40;;;;;;6168422;23;20029;-82
2022/03/24 09:53:33;;;;;;;37.35;20.63;;;14.00;58.80;;;;;;6194492;23;19996;-82
2022/03/24 09:56:00;;;;;;;37.83;22.02;;;14.10;58.40;;;;;;6143410;23;20352;-83
2022/03/24 10:01:13;;;;;;;33.15;19.80;;;14.30;54.90;;;;;;6154323;23;20035;-81
2022/03/24 10:04:02;;;;;;;27.02;18.33;;;14.30;55.50;;;;;;6132143;23;20014;-81
2022/03/24 10:06:28;;;;;;;33.53;19.75;;;14.50;55.30;;;;;;6157394;23;20057;-83
2022/03/24 10:08:54;;;;;;;30.20;19.90;;;14.60;55.60;;;;;;6133891;23;19994;-81
2022/03/24 10:11:25;;;;;;;30.23;19.63;;;14.80;55.30;;;;;;6134520;23;20012;-80
2022/03/24 10:13:57;;;;;;;29.42;19.40;;;14.90;53.60;;;;;;6108389;23;20006;-79
2022/03/24 10:16:32;;;;;;;26.15;18.70;;;15.00;52.30;;;;;;6133497;23;20061;-80
2022/03/24 10:19:03;;;;;;;28.98;18.67;;;15.10;51.80;;;;;;6134496;23;20183;-78
2022/03/24 10:21:32;;;;;;;24.70;17.80;;;15.30;51.00;;;;;;6132954;23;20103;-79
2022/03/24 10:24:06;;;;;;;25.90;16.98;;;15.40;49.90;;;;;;6108585;23;20010;-78
2022/03/24 10:26:46;;;;;;;23.73;17.13;;;15.50;49.20;;;;;;6108121;23;20033;-79
2022/03/24 10:29:23;;;;;;;21.27;14.60;;;15.70;48.90;;;;;;6134151;23;20084;-78
2022/03/24 10:31:56;;;;;;;27.05;17.80;;;15.80;48.50;;;;;;6133987;23;20028;-79
2022/03/24 10:34:41;;;;;;;26.23;18.08;;;15.90;49.60;;;;;;6158237;23;20010;-78
2022/03/24 10:46:30;;;;;;;31.55;20.27;;;16.50;50.00;;;;;;6121758;23;20313;-79
2022/03/24 10:48:57;;;;;;;34.03;20.00;;;16.70;50.30;;;;;;6194698;23;20001;-80
2022/03/24 10:51:28;;;;;;;32.53;18.45;;;16.90;49.60;;;;;;6143847;23;20291;-79
2022/03/24 10:54:10;;;;;;;29.40;17.65;;;17.00;48.80;;;;;;6194194;23;20012;-81
2022/03/24 10:56:39;;;;;;;25.00;17.90;;;17.30;48.60;;;;;;6193359;23;20089;-80
2022/03/24 10:59:05;;;;;;;;;;;17.40;48.00;;;;;;6194809;23;20001;-80
2022/03/24 11:01:33;;;;;;;27.67;15.88;;;17.70;48.20;;;;;;6191089;23;19911;-82
2022/03/24 11:03:59;;;;;;;25.20;18.25;;;17.90;48.30;;;;;;6195898;23;20261;-82
2022/03/24 11:06:29;;;;;;;25.27;18.90;;;18.10;48.80;;;;;;6173060;23;20008;-82
2022/03/24 11:09:00;;;;;;;29.58;19.63;;;18.50;48.30;;;;;;6173377;23;20013;-80
2022/03/24 11:11:27;;;;;;;32.55;19.33;;;19.00;47.50;;;;;;6197881;23;20005;-82
2022/03/24 11:22:54;;;;;;;19.50;16.73;;;22.50;42.00;;;;;;6219881;23;20024;-81
2022/03/24 11:25:22;;;;;;;18.50;15.30;;;23.20;41.00;;;;;;6197866;23;20099;-83
2022/03/24 11:27:50;;;;;;;18.48;15.55;;;23.80;40.20;;;;;;6172447;23;20038;-83
2022/03/24 11:30:18;;;;;;;19.48;15.30;;;24.40;39.30;;;;;;6196776;23;20015;-83
2022/03/24 11:32:52;;;;;;;19.73;15.45;;;25.30;38.40;;;;;;6197227;23;20011;-81
2022/03/24 11:35:20;;;;;;;16.63;14.82;;;26.30;38.40;;;;;;6197410;23;20298;-81
2022/03/24 11:37:48;;;;;;;16.83;14.30;;;26.80;37.60;;;;;;6223630;23;20198;-79
2022/03/24 11:40:17;;;;;;;;;;;27.30;36.70;;;;;;6199797;23;20237;-80
2022/03/24 11:42:52;;;;;;;16.80;15.00;;;28.00;36.70;;;;;;6174097;23;19902;-79
2022/03/24 11:45:49;;;;;;;16.83;13.82;;;28.50;36.10;;;;;;6225174;23;20001;-83
2022/03/24 11:48:17;;;;;;;22.38;14.75;;;28.90;36.00;;;;;;6199588;23;20005;-80
2022/03/24 11:50:55;;;;;;;19.83;13.52;;;30.10;35.90;;;;;;6224983;23;20325;-80
2022/03/24 11:53:29;;;;;;;17.95;14.13;;;30.20;35.60;;;;;;6225800;23;20004;-85
2022/03/24 11:56:01;;;;;;;16.00;13.30;;;30.20;35.10;;;;;;6199828;23;20059;-82
2022/03/24 11:58:35;;;;;;;15.27;12.55;;;31.00;35.20;;;;;;6199676;23;20004;-81
2022/03/24 12:01:33;;;;;;;17.15;12.35;;;30.80;34.10;;;;;;6225004;23;20012;-81
2022/03/24 12:04:10;;;;;;;14.82;13.15;;;30.80;33.70;;;;;;6207307;23;20004;-81
2022/03/24 12:07:13;;;;;;;16.73;12.60;;;31.00;34.00;;;;;;6224074;23;20005;-82
2022/03/24 12:10:06;;;;;;;18.73;12.32;;;31.40;33.90;;;;;;6198550;23;20005;-80
2022/03/24 12:12:32;;;;;;;18.67;12.25;;;31.50;33.50;;;;;;6173844;23;20020;-82
2022/03/24 12:15:10;;;;;;;19.13;11.80;;;31.90;33.50;;;;;;6224613;23;20008;-80
2022/03/24 12:18:11;;;;;;;;;;;33.00;33.50;;;;;;6223880;23;20013;-81
2022/03/24 12:20:42;;;;;;;13.32;11.05;;;33.80;32.90;;;;;;6052319;23;19905;-81
2022/03/24 12:23:08;;;;;;;12.77;11.57;;;33.50;32.60;;;;;;6205855;23;20013;-81
2022/03/24 12:25:35;;;;;;;16.83;11.02;;;33.50;32.70;;;;;;6209436;23;20012;-80
2022/03/24 12:28:10;;;;;;;16.20;10.82;;;33.50;32.50;;;;;;6242256;23;20031;-81
2022/03/24 12:31:04;;;;;;;19.00;11.88;;;33.70;32.70;;;;;;6214929;23;20042;-80
2022/03/24 12:33:43;;;;;;;18.00;9.48;;;34.40;32.40;;;;;;6229604;23;20004;-79
2022/03/24 12:36:14;;;;;;;24.40;10.85;;;34.80;33.50;;;;;;6226247;23;20028;-79
2022/03/24 12:38:46;;;;;;;16.20;10.15;;;34.00;31.80;;;;;;6198777;23;20005;-81
2022/03/24 12:41:17;;;;;;;11.55;10.13;;;34.40;32.20;;;;;;6226590;23;20009;-82
2022/03/24 12:43:55;;;;;;;10.80;9.65;;;34.70;31.50;;;;;;6199159;23;20004;-78
2022/03/24 12:46:26;;;;;;;;;;;34.70;31.60;;;;;;6225886;23;20019;-79
2022/03/24 12:48:52;;;;;;;11.63;10.40;;;35.10;31.50;;;;;;6223748;23;20133;-80
2022/03/24 12:51:52;;;;;;;14.23;10.87;;;36.00;31.30;;;;;;6197860;23;20028;-79
2022/03/24 12:54:22;;;;;;;12.93;10.60;;;36.40;31.50;;;;;;6225219;23;20011;-80
2022/03/24 12:56:48;;;;;;;11.70;9.65;;;35.80;31.20;;;;;;6224538;23;20005;-82
2022/03/24 12:59:19;;;;;;;13.32;10.05;;;36.30;31.10;;;;;;6224560;23;19989;-80
2022/03/24 13:01:49;;;;;;;10.60;9.45;;;37.00;31.10;;;;;;6224301;23;20020;-80
2022/03/24 13:04:15;;;;;;;15.65;10.80;;;37.10;31.20;;;;;;6198389;23;20008;-78
2022/03/24 13:06:41;;;;;;;12.52;10.18;;;37.00;30.90;;;;;;6224311;23;20047;-80
2022/03/24 13:09:21;;;;;;;14.25;10.02;;;36.60;30.80;;;;;;6224920;23;20009;-78
2022/03/24 13:11:55;;;;;;;11.85;8.98;;;37.30;30.50;;;;;;6225678;23;20009;-79
2022/03/24 13:14:22;;;;;;;9.73;8.63;;;37.10;30.60;;;;;;6226215;23;20042;-79
2022/03/24 13:17:08;;;;;;;11.90;9.43;;;37.60;30.60;;;;;;6197573;23;20068;-81
2022/03/24 13:19:38;;;;;;;9.75;8.77;;;37.50;30.60;;;;;;6198555;23;20047;-78
2022/03/24 13:22:17;;;;;;;18.83;9.38;;;37.50;30.20;;;;;;6198484;23;20032;-79
2022/03/24 13:24:53;;;;;;;10.30;9.00;;;37.60;30.40;;;;;;6224507;23;20040;-81
2022/03/24 13:27:21;;;;;;;9.80;8.77;;;38.50;30.40;;;;;;6198475;23;20056;-78
2022/03/24 13:30:09;;;;;;;9.05;8.00;;;38.70;30.10;;;;;;6198820;23;20000;-79
2022/03/24 13:32:36;;;;;;;9.27;8.38;;;39.70;30.50;;;;;;6198072;23;20093;-80
2022/03/24 13:35:40;;;;;;;10.45;9.48;;;39.80;30.10;;;;;;6198141;23;20009;-81
2022/03/24 13:38:07;;;;;;;10.68;9.57;;;39.70;29.80;;;;;;6224501;23;20016;-82
2022/03/24 13:40:38;;;;;;;10.63;9.52;;;39.20;29.80;;;;;;6198741;23;20004;-82
2022/03/24 13:43:09;;;;;;;11.30;9.25;;;39.50;29.90;;;;;;6224660;23;20279;-81
2022/03/24 13:45:36;;;;;;;10.13;8.68;;;39.10;30.00;;;;;;6197430;23;20198;-79
2022/03/24 13:48:10;;;;;;;10.35;9.30;;;39.70;29.90;;;;;;6198816;23;20001;-80
2022/03/24 13:50:38;;;;;;;9.90;8.90;;;38.80;29.60;;;;;;6224749;23;20097;-81
2022/03/24 13:53:17;;;;;;;9.60;8.73;;;39.00;29.80;;;;;;6197903;23;20000;-81
2022/03/24 13:55:45;;;;;;;11.20;10.10;;;38.80;29.90;;;;;;6196202;23;20016;-80
2022/03/24 13:58:12;;;;;;;9.63;8.40;;;38.40;29.60;;;;;;6197426;23;20037;-81
2022/03/24 14:00:48;;;;;;;10.90;8.77;;;39.00;30.50;;;;;;6222320;23;20000;-80
2022/03/24 14:03:24;;;;;;;17.00;10.30;;;40.20;30.30;;;;;;6224074;23;20278;-79
2022/03/24 14:05:53;;;;;;;12.43;9.90;;;40.10;30.40;;;;;;6222940;23;20001;-81
2022/03/24 14:08:47;;;;;;;13.73;10.05;;;41.10;30.00;;;;;;6223641;23;20175;-83
2022/03/24 14:11:24;;;;;;;11.65;9.88;;;40.60;29.70;;;;;;6223696;23;20008;-84
2022/03/24 14:13:55;;;;;;;11.50;10.25;;;39.90;29.50;;;;;;6197104;23;20008;-82
2022/03/24 14:16:22;;;;;;;9.68;8.77;;;39.50;29.80;;;;;;6224268;23;20012;-83
2022/03/24 14:19:29;;;;;;;10.07;9.18;;;40.00;29.70;;;;;;6197865;23;20212;-82
2022/03/24 14:22:12;;;;;;;11.00;9.27;;;39.90;29.50;;;;;;6196711;23;20066;-82
2022/03/24 14:24:43;;;;;;;11.32;9.52;;;39.40;29.60;;;;;;6196797;23;20011;-84
2022/03/24 14:27:23;;;;;;;9.75;8.75;;;39.60;29.80;;;;;;6200666;23;20009;-82
2022/03/24 14:30:11;;;;;;;9.40;8.50;;;40.10;29.90;;;;;;6196660;23;20004;-81
2022/03/24 14:32:42;;;;;;;10.25;8.95;;;40.70;29.50;;;;;;6224531;23;20091;-81
2022/03/24 14:35:36;;;;;;;13.77;9.80;;;41.00;29.30;;;;;;6225373;23;20055;-82
2022/03/24 14:41:58;;;;;;;10.43;9.07;;;40.00;29.50;;;;;;6225928;23;20008;-84
2022/03/24 14:59:00;;;;;;;11.48;9.10;;;40.50;29.00;;;;;;6134149;23;20331;-81
2022/03/24 15:02:20;;;;;;;9.70;8.80;;;39.90;29.10;;;;;;6134791;23;20010;-82
2022/03/24 15:05:50;;;;;;;10.65;9.52;;;40.50;29.30;;;;;;6166804;23;20001;-81
2022/03/24 15:09:00;;;;;;;9.73;8.73;;;38.70;29.10;;;;;;6193459;23;20009;-82
2022/03/24 15:12:22;;;;;;;10.13;9.18;;;38.80;29.50;;;;;;6193359;23;20020;-82
2022/03/24 15:18:36;;;;;;;10.68;9.68;;;39.60;29.40;;;;;;6120842;23;20016;-83
2022/03/24 17:24:54;;;;;;;13.10;9.60;;;22.60;38.10;;;;;;6075069;23;20010;-82
2022/03/24 17:32:16;;;;;;;11.98;8.85;;;21.80;38.30;;;;;;6022087;23;20063;-81
2022/03/24 17:35:29;;;;;;;;;;;;;;;;;;;;;
2022/03/24 17:38:39;;;;;;;12.68;9.60;;;20.70;38.90;;;;;;6106733;23;20021;-82
2022/03/24 18:31:54;;;;;;;14.20;10.25;;;16.60;46.70;;;;;;6147062;23;20032;-82
2022/03/24 18:34:23;;;;;;;15.85;11.05;;;16.50;47.10;;;;;;6138223;23;20022;-83
2022/03/24 18:56:00;;;;;;;17.10;11.75;;;15.10;49.00;;;;;;6164361;23;20001;-82
2022/03/24 19:02:23;;;;;;;20.98;13.05;;;14.90;49.00;;;;;;6185176;23;20317;-81
2022/03/24 19:27:44;;;;;;;19.60;13.63;;;14.00;51.50;;;;;;6224100;23;20015;-83
2022/03/24 19:51:30;;;;;;;23.13;13.77;;;13.50;53.30;;;;;;5988267;24;20019;-81
2022/03/24 21:07:55;;;;;;;23.95;14.70;;;11.30;59.60;;;;;;6194256;23;20024;-81
2022/03/24 21:10:22;;;;;;;34.63;20.75;;;11.20;60.00;;;;;;6225725;23;20054;-81
2022/03/24 21:12:53;;;;;;;34.60;19.05;;;11.20;60.00;;;;;;6249414;23;19993;-83
2022/03/24 21:15:34;;;;;;;28.70;17.40;;;11.10;59.80;;;;;;6206506;22;20305;-84
2022/03/24 21:30:10;;;;;;;;;;;;;;;;;;;;;
2022/03/24 23:28:48;;;;;;;30.80;15.43;;;8.50;69.80;;;;;;6163780;22;20410;-81
2022/03/24 23:31:26;;;;;;;25.42;14.55;;;8.50;69.90;;;;;;6217882;23;20070;-81
2022/03/24 23:42:36;;;;;;;28.85;14.13;;;8.10;72.80;;;;;;6076163;23;20012;-83
2022/03/24 23:46:17;;;;;;;29.35;15.43;;;8.10;72.00;;;;;;6075448;23;20229;-80
